sensor_id;sensor_type;location;lat;lon;timestamp;pressure;altitude;pressure_sealevel;temperature;humidity
26443;BME280;5563;52.296;6.806;2023-04-01T00:02:23;99064.38;;;9.07;92.42
26443;BME280;5563;52.296;6.806;2023-04-01T00:04:56;99060.22;;;9.04;92.34
26443;BME280;5563;52.296;6.806;2023-04-01T00:07:23;99067.03;;;9.07;92.30
26443;BME280;5563;52.296;6.806;2023-04-01T00:10:05;99058.53;;;9.03;92.24
26443;BME280;5563;52.296;6.806;2023-04-01T00:12:32;99057.56;;;9.04;92.28
26443;BME280;5563;52.296;6.806;2023-04-01T00:15:07;99048.72;;;8.96;92.54
26443;BME280;5563;52.296;6.806;2023-04-01T00:17:35;99063.84;;;9.03;92.57
26443;BME280;5563;52.296;6.806;2023-04-01T00:20:03;99052.19;;;8.96;92.57
26443;BME280;5563;52.296;6.806;2023-04-01T00:22:36;99041.53;;;8.96;92.70
26443;BME280;5563;52.296;6.806;2023-04-01T00:25:04;99051.72;;;9.01;92.95
26443;BME280;5563;52.296;6.806;2023-04-01T00:27:38;99058.69;;;9.02;92.82
26443;BME280;5563;52.296;6.806;2023-04-01T00:30:05;99043.53;;;8.94;92.87
26443;BME280;5563;52.296;6.806;2023-04-01T00:32:40;99041.09;;;9.01;92.82
26443;BME280;5563;52.296;6.806;2023-04-01T00:35:07;99046.34;;;8.93;92.88
26443;BME280;5563;52.296;6.806;2023-04-01T00:37:36;99043.41;;;8.96;92.98
26443;BME280;5563;52.296;6.806;2023-04-01T00:40:27;99039.91;;;8.95;92.96
26443;BME280;5563;52.296;6.806;2023-04-01T00:43:03;99040.88;;;8.94;93.38
26443;BME280;5563;52.296;6.806;2023-04-01T00:45:39;99044.72;;;9.00;93.22
26443;BME280;5563;52.296;6.806;2023-04-01T00:48:26;99050.03;;;9.00;93.09
26443;BME280;5563;52.296;6.806;2023-04-01T00:50:59;99045.72;;;8.99;93.13
26443;BME280;5563;52.296;6.806;2023-04-01T00:53:37;99048.38;;;8.99;92.91
26443;BME280;5563;52.296;6.806;2023-04-01T00:56:16;99044.72;;;9.00;92.92
26443;BME280;5563;52.296;6.806;2023-04-01T00:58:53;99051.72;;;9.01;93.10
26443;BME280;5563;52.296;6.806;2023-04-01T01:01:29;99048.38;;;8.99;92.91
26443;BME280;5563;52.296;6.806;2023-04-01T01:04:03;99050.03;;;9.00;92.93
26443;BME280;5563;52.296;6.806;2023-04-01T01:09:51;99047.38;;;9.00;93.14
26443;BME280;5563;52.296;6.806;2023-04-01T01:12:27;99048.22;;;9.00;93.40
26443;BME280;5563;52.296;6.806;2023-04-01T01:15:20;99055.34;;;9.00;93.47
26443;BME280;5563;52.296;6.806;2023-04-01T01:20:57;99044.03;;;8.98;93.05
26443;BME280;5563;52.296;6.806;2023-04-01T01:32:51;99042.56;;;8.95;93.62
26443;BME280;5563;52.296;6.806;2023-04-01T01:35:35;99031.41;;;8.92;93.51
26443;BME280;5563;52.296;6.806;2023-04-01T01:38:13;99040.22;;;8.92;93.86
26443;BME280;5563;52.296;6.806;2023-04-01T01:40:42;99040.22;;;8.92;93.59
26443;BME280;5563;52.296;6.806;2023-04-01T01:43:21;99048.03;;;8.94;94.09
26443;BME280;5563;52.296;6.806;2023-04-01T01:45:55;99047.19;;;8.93;93.90
26443;BME280;5563;52.296;6.806;2023-04-01T01:48:31;99038.53;;;8.91;93.96
26443;BME280;5563;52.296;6.806;2023-04-01T01:50:59;99042.03;;;8.92;93.63
26443;BME280;5563;52.296;6.806;2023-04-01T01:53:34;99045.66;;;8.91;94.16
26443;BME280;5563;52.296;6.806;2023-04-01T01:56:01;99047.34;;;8.92;94.06
26443;BME280;5563;52.296;6.806;2023-04-01T01:58:39;99048.19;;;8.92;94.13
26443;BME280;5563;52.296;6.806;2023-04-01T02:01:27;99040.34;;;8.91;94.10
26443;BME280;5563;52.296;6.806;2023-04-01T02:04:03;99042.88;;;8.92;94.40
26443;BME280;5563;52.296;6.806;2023-04-01T02:06:41;99046.66;;;8.90;94.18
26443;BME280;5563;52.296;6.806;2023-04-01T02:09:16;99049.00;;;8.93;94.36
26443;BME280;5563;52.296;6.806;2023-04-01T02:17:17;99057.13;;;8.91;94.04
26443;BME280;5563;52.296;6.806;2023-04-01T02:19:54;99055.31;;;8.92;94.47
26443;BME280;5563;52.296;6.806;2023-04-01T02:22:40;99056.63;;;8.88;94.33
26443;BME280;5563;52.296;6.806;2023-04-01T02:25:18;99060.63;;;8.92;94.03
26443;BME280;5563;52.296;6.806;2023-04-01T02:27:46;99065.09;;;8.91;94.26
26443;BME280;5563;52.296;6.806;2023-04-01T02:30:20;99063.13;;;8.93;93.89
26443;BME280;5563;52.296;6.806;2023-04-01T02:32:47;99052.31;;;8.87;94.12
26443;BME280;5563;52.296;6.806;2023-04-01T02:35:22;99065.09;;;8.91;94.19
26443;BME280;5563;52.296;6.806;2023-04-01T02:37:56;99058.94;;;8.91;94.34
26443;BME280;5563;52.296;6.806;2023-04-01T02:40:39;99061.59;;;8.91;94.22
26443;BME280;5563;52.296;6.806;2023-04-01T02:43:07;99067.75;;;8.91;94.17
26443;BME280;5563;52.296;6.806;2023-04-01T02:45:40;99070.44;;;8.91;94.29
26443;BME280;5563;52.296;6.806;2023-04-01T02:48:07;99061.25;;;8.86;94.62
26443;BME280;5563;52.296;6.806;2023-04-01T02:50:34;99077.88;;;8.88;94.38
26443;BME280;5563;52.296;6.806;2023-04-01T02:53:08;99068.59;;;8.92;94.20
26443;BME280;5563;52.296;6.806;2023-04-01T02:55:35;99073.25;;;8.90;94.32
26443;BME280;5563;52.296;6.806;2023-04-01T02:58:08;99063.75;;;8.87;94.31
26443;BME280;5563;52.296;6.806;2023-04-01T03:00:36;99067.94;;;8.90;94.56
26443;BME280;5563;52.296;6.806;2023-04-01T03:03:10;99062.94;;;8.87;94.57
26443;BME280;5563;52.296;6.806;2023-04-01T03:05:37;99072.09;;;8.92;94.40
26443;BME280;5563;52.296;6.806;2023-04-01T03:08:17;99070.09;;;8.94;94.39
26443;BME280;5563;52.296;6.806;2023-04-01T03:10:44;99062.25;;;8.85;94.39
26443;BME280;5563;52.296;6.806;2023-04-01T03:13:17;99059.59;;;8.85;94.57
26443;BME280;5563;52.296;6.806;2023-04-01T03:15:44;99064.06;;;8.84;94.45
26443;BME280;5563;52.296;6.806;2023-04-01T03:18:11;99081.06;;;8.91;94.51
26443;BME280;5563;52.296;6.806;2023-04-01T03:20:45;99091.69;;;8.91;94.44
26443;BME280;5563;52.296;6.806;2023-04-01T03:23:12;99086.22;;;8.93;94.72
26443;BME280;5563;52.296;6.806;2023-04-01T03:25:45;99085.41;;;8.92;94.32
26443;BME280;5563;52.296;6.806;2023-04-01T03:28:13;99088.19;;;8.91;94.36
26443;BME280;5563;52.296;6.806;2023-04-01T03:30:46;99082.22;;;8.89;94.46
26443;BME280;5563;52.296;6.806;2023-04-01T03:33:13;99095.19;;;8.92;94.27
26443;BME280;5563;52.296;6.806;2023-04-01T03:35:46;99093.22;;;8.94;94.50
26443;BME280;5563;52.296;6.806;2023-04-01T03:38:15;99090.47;;;8.86;94.49
26443;BME280;5563;52.296;6.806;2023-04-01T03:40:48;99104.00;;;8.92;94.45
26443;BME280;5563;52.296;6.806;2023-04-01T03:43:15;99103.69;;;8.95;94.36
26443;BME280;5563;52.296;6.806;2023-04-01T03:45:50;99097.84;;;8.92;94.61
26443;BME280;5563;52.296;6.806;2023-04-01T03:48:24;99085.31;;;8.84;94.58
26443;BME280;5563;52.296;6.806;2023-04-01T03:50:52;99110.66;;;8.96;94.67
26443;BME280;5563;52.296;6.806;2023-04-01T03:53:24;99094.66;;;8.88;94.84
26443;BME280;5563;52.296;6.806;2023-04-01T03:55:51;99103.53;;;8.97;94.45
26443;BME280;5563;52.296;6.806;2023-04-01T03:58:25;99103.16;;;8.92;94.55
26443;BME280;5563;52.296;6.806;2023-04-01T04:00:51;99112.50;;;8.96;94.73
26443;BME280;5563;52.296;6.806;2023-04-01T04:03:24;99118.47;;;8.98;94.78
26443;BME280;5563;52.296;6.806;2023-04-01T04:05:52;99119.47;;;8.97;94.58
26443;BME280;5563;52.296;6.806;2023-04-01T04:08:25;99107.63;;;8.91;94.83
26443;BME280;5563;52.296;6.806;2023-04-01T04:10:59;99126.59;;;8.96;94.83
26443;BME280;5563;52.296;6.806;2023-04-01T04:13:33;99109.44;;;8.91;94.73
26443;BME280;5563;52.296;6.806;2023-04-01T04:16:00;99112.41;;;8.88;94.88
26443;BME280;5563;52.296;6.806;2023-04-01T04:18:33;99128.44;;;8.96;94.86
26443;BME280;5563;52.296;6.806;2023-04-01T04:21:00;99120.75;;;8.93;95.03
26443;BME280;5563;52.296;6.806;2023-04-01T04:23:33;99126.91;;;8.93;94.91
26443;BME280;5563;52.296;6.806;2023-04-01T04:26:08;99108.41;;;8.84;94.79
26443;BME280;5563;52.296;6.806;2023-04-01T04:28:35;99121.25;;;8.88;94.64
26443;BME280;5563;52.296;6.806;2023-04-01T04:31:08;99126.41;;;8.90;94.84
26443;BME280;5563;52.296;6.806;2023-04-01T04:33:36;99122.22;;;8.87;94.40
26443;BME280;5563;52.296;6.806;2023-04-01T04:36:09;99135.38;;;8.89;94.42
26443;BME280;5563;52.296;6.806;2023-04-01T04:38:37;99132.16;;;8.85;94.31
26443;BME280;5563;52.296;6.806;2023-04-01T04:41:14;99149.03;;;8.94;94.75
26443;BME280;5563;52.296;6.806;2023-04-01T04:43:42;99143.03;;;8.92;94.61
26443;BME280;5563;52.296;6.806;2023-04-01T04:46:16;99144.00;;;8.91;94.65
26443;BME280;5563;52.296;6.806;2023-04-01T04:48:49;99143.78;;;8.84;94.45
26443;BME280;5563;52.296;6.806;2023-04-01T04:51:23;99149.47;;;8.89;94.92
26443;BME280;5563;52.296;6.806;2023-04-01T04:53:56;99152.28;;;8.88;94.64
26443;BME280;5563;52.296;6.806;2023-04-01T04:56:23;99160.09;;;8.89;94.62
26443;BME280;5563;52.296;6.806;2023-04-01T04:58:59;99163.75;;;8.88;94.55
26443;BME280;5563;52.296;6.806;2023-04-01T05:01:26;99157.75;;;8.86;94.62
26443;BME280;5563;52.296;6.806;2023-04-01T05:04:00;99166.56;;;8.87;94.53
26443;BME280;5563;52.296;6.806;2023-04-01T05:06:27;99165.72;;;8.86;94.48
26443;BME280;5563;52.296;6.806;2023-04-01T05:09:09;99170.38;;;8.84;94.42
26443;BME280;5563;52.296;6.806;2023-04-01T05:11:36;99175.53;;;8.86;94.63
26443;BME280;5563;52.296;6.806;2023-04-01T05:14:17;99168.19;;;8.80;94.59
26443;BME280;5563;52.296;6.806;2023-04-01T05:16:43;99167.50;;;8.78;94.69
26443;BME280;5563;52.296;6.806;2023-04-01T05:19:17;99182.66;;;8.85;94.75
26443;BME280;5563;52.296;6.806;2023-04-01T05:21:43;99187.97;;;8.85;94.69
26443;BME280;5563;52.296;6.806;2023-04-01T05:24:16;99186.47;;;8.83;94.92
26443;BME280;5563;52.296;6.806;2023-04-01T05:26:44;99178.66;;;8.81;94.96
26443;BME280;5563;52.296;6.806;2023-04-01T05:29:10;99185.78;;;8.81;94.56
26443;BME280;5563;52.296;6.806;2023-04-01T05:31:45;99182.28;;;8.80;94.88
26443;BME280;5563;52.296;6.806;2023-04-01T05:34:13;99191.47;;;8.86;94.99
26443;BME280;5563;52.296;6.806;2023-04-01T05:36:45;99193.28;;;8.85;94.61
26443;BME280;5563;52.296;6.806;2023-04-01T05:39:12;99191.47;;;8.86;94.77
26443;BME280;5563;52.296;6.806;2023-04-01T05:41:45;99201.25;;;8.85;94.59
26443;BME280;5563;52.296;6.806;2023-04-01T05:44:12;99198.91;;;8.82;94.79
26443;BME280;5563;52.296;6.806;2023-04-01T05:46:45;99201.41;;;8.84;94.90
26443;BME280;5563;52.296;6.806;2023-04-01T05:49:12;99193.75;;;8.81;94.58
26443;BME280;5563;52.296;6.806;2023-04-01T05:51:46;99200.72;;;8.82;94.72
26443;BME280;5563;52.296;6.806;2023-04-01T05:54:13;99212.56;;;8.87;94.56
26443;BME280;5563;52.296;6.806;2023-04-01T05:56:39;99202.72;;;8.80;94.48
26443;BME280;5563;52.296;6.806;2023-04-01T05:59:14;99208.25;;;8.86;94.76
26443;BME280;5563;52.296;6.806;2023-04-01T06:01:41;99210.75;;;8.88;94.45
26443;BME280;5563;52.296;6.806;2023-04-01T06:04:17;99210.06;;;8.86;94.44
26443;BME280;5563;52.296;6.806;2023-04-01T06:06:45;99209.22;;;8.85;94.53
26443;BME280;5563;52.296;6.806;2023-04-01T06:09:21;99215.91;;;8.89;94.74
26443;BME280;5563;52.296;6.806;2023-04-01T06:23:39;99233.16;;;9.03;94.93
26443;BME280;5563;52.296;6.806;2023-04-01T06:32:09;99246.47;;;9.03;94.93
26443;BME280;5563;52.296;6.806;2023-04-01T06:34:51;99236.94;;;9.00;94.96
26443;BME280;5563;52.296;6.806;2023-04-01T06:40:42;99249.13;;;9.03;95.20
26443;BME280;5563;52.296;6.806;2023-04-01T06:43:51;99253.44;;;9.04;95.19
26443;BME280;5563;52.296;6.806;2023-04-01T06:52:16;99261.88;;;9.17;94.79
26443;BME280;5563;52.296;6.806;2023-04-01T06:54:55;99257.34;;;9.17;94.89
26443;BME280;5563;52.296;6.806;2023-04-01T06:57:38;99248.94;;;9.22;94.91
26443;BME280;5563;52.296;6.806;2023-04-01T07:00:24;99240.97;;;9.22;94.92
26443;BME280;5563;52.296;6.806;2023-04-01T07:03:13;99261.00;;;9.34;94.70
26443;BME280;5563;52.296;6.806;2023-04-01T07:05:50;99266.69;;;9.39;94.53
26443;BME280;5563;52.296;6.806;2023-04-01T07:08:35;99276.88;;;9.43;94.70
26443;BME280;5563;52.296;6.806;2023-04-01T07:11:06;99267.06;;;9.44;94.55
26443;BME280;5563;52.296;6.806;2023-04-01T07:13:49;99271.56;;;9.43;94.87
26443;BME280;5563;52.296;6.806;2023-04-01T07:16:41;99280.59;;;9.50;94.84
26443;BME280;5563;52.296;6.806;2023-04-01T07:19:38;99288.09;;;9.55;94.73
26443;BME280;5563;52.296;6.806;2023-04-01T07:22:16;99294.63;;;9.60;94.79
26443;BME280;5563;52.296;6.806;2023-04-01T07:24:54;99297.97;;;9.62;94.66
26443;BME280;5563;52.296;6.806;2023-04-01T07:27:21;99296.16;;;9.63;94.50
26443;BME280;5563;52.296;6.806;2023-04-01T07:29:57;99297.13;;;9.62;94.64
26443;BME280;5563;52.296;6.806;2023-04-01T07:35:38;99305.38;;;9.76;94.71
26443;BME280;5563;52.296;6.806;2023-04-01T07:44:06;99309.44;;;9.89;94.33
26443;BME280;5563;52.296;6.806;2023-04-01T07:52:58;99329.81;;;9.98;93.85
26443;BME280;5563;52.296;6.806;2023-04-01T07:58:20;99348.59;;;9.96;94.10
26443;BME280;5563;52.296;6.806;2023-04-01T08:07:00;99358.72;;;10.10;94.30
26443;BME280;5563;52.296;6.806;2023-04-01T08:21:20;99371.94;;;10.20;94.19
26443;BME280;5563;52.296;6.806;2023-04-01T08:24:11;99379.13;;;10.27;94.02
26443;BME280;5563;52.296;6.806;2023-04-01T08:26:55;99378.00;;;10.38;94.15
26443;BME280;5563;52.296;6.806;2023-04-01T08:29:33;99375.09;;;10.49;94.37
26443;BME280;5563;52.296;6.806;2023-04-01T08:32:16;99377.66;;;10.58;93.89
26443;BME280;5563;52.296;6.806;2023-04-01T08:34:58;99386.34;;;10.68;93.74
26443;BME280;5563;52.296;6.806;2023-04-01T08:37:30;99387.69;;;10.72;93.25
26443;BME280;5563;52.296;6.806;2023-04-01T08:40:25;99389.69;;;10.70;93.12
26443;BME280;5563;52.296;6.806;2023-04-01T08:43:58;99399.03;;;10.74;92.69
26443;BME280;5563;52.296;6.806;2023-04-01T09:00:43;99419.09;;;11.36;91.80
26443;BME280;5563;52.296;6.806;2023-04-01T09:03:56;99419.25;;;11.43;91.41
26443;BME280;5563;52.296;6.806;2023-04-01T09:18:19;99437.56;;;11.79;90.30
26443;BME280;5563;52.296;6.806;2023-04-01T09:35:46;99452.03;;;11.69;89.35
26443;BME280;5563;52.296;6.806;2023-04-01T09:38:30;99461.72;;;11.78;89.48
26443;BME280;5563;52.296;6.806;2023-04-01T09:44:18;99469.75;;;12.10;88.75
26443;BME280;5563;52.296;6.806;2023-04-01T09:49:34;99472.44;;;12.42;89.00
26443;BME280;5563;52.296;6.806;2023-04-01T10:21:42;99515.03;;;11.54;88.10
26443;BME280;5563;52.296;6.806;2023-04-01T10:38:20;99526.84;;;11.43;89.97
26443;BME280;5563;52.296;6.806;2023-04-01T10:50:04;99537.75;;;11.58;90.55
26443;BME280;5563;52.296;6.806;2023-04-01T10:52:55;99526.78;;;11.69;89.97
26443;BME280;5563;52.296;6.806;2023-04-01T11:11:23;99546.09;;;11.63;89.39
26443;BME280;5563;52.296;6.806;2023-04-01T11:14:49;99552.06;;;11.49;89.61
26443;BME280;5563;52.296;6.806;2023-04-01T11:18:05;99553.38;;;11.45;89.95
26443;BME280;5563;52.296;6.806;2023-04-01T11:26:36;99574.31;;;11.32;89.95
26443;BME280;5563;52.296;6.806;2023-04-01T11:41:19;99591.56;;;10.86;91.70
26443;BME280;5563;52.296;6.806;2023-04-01T11:49:44;99609.28;;;10.95;91.91
26443;BME280;5563;52.296;6.806;2023-04-01T11:59:09;99619.75;;;11.14;92.42
26443;BME280;5563;52.296;6.806;2023-04-01T12:07:33;99645.72;;;11.12;92.63
26443;BME280;5563;52.296;6.806;2023-04-01T12:10:45;99643.81;;;11.22;92.41
26443;BME280;5563;52.296;6.806;2023-04-01T12:13:41;99654.00;;;11.27;92.38
26443;BME280;5563;52.296;6.806;2023-04-01T12:19:17;99647.53;;;11.29;92.11
26443;BME280;5563;52.296;6.806;2023-04-01T12:22:18;99649.03;;;11.32;92.38
26443;BME280;5563;52.296;6.806;2023-04-01T12:27:58;99661.44;;;11.41;92.10
26443;BME280;5563;52.296;6.806;2023-04-01T12:33:41;99666.16;;;11.47;92.05
26443;BME280;5563;52.296;6.806;2023-04-01T12:39:43;99674.59;;;11.60;91.94
26443;BME280;5563;52.296;6.806;2023-04-01T12:42:36;99681.81;;;11.67;92.09
26443;BME280;5563;52.296;6.806;2023-04-01T12:45:34;99684.03;;;11.72;91.90
26443;BME280;5563;52.296;6.806;2023-04-01T12:54:02;99694.47;;;11.65;90.98
26443;BME280;5563;52.296;6.806;2023-04-01T12:56:48;99695.78;;;11.61;90.84
26443;BME280;5563;52.296;6.806;2023-04-01T13:05:09;99719.78;;;11.36;90.91
26443;BME280;5563;52.296;6.806;2023-04-01T13:13:38;99728.88;;;11.25;91.60
26443;BME280;5563;52.296;6.806;2023-04-01T13:19:02;99742.84;;;11.19;91.42
26443;BME280;5563;52.296;6.806;2023-04-01T13:24:44;99745.28;;;11.13;91.95
26443;BME280;5563;52.296;6.806;2023-04-01T13:36:41;99764.03;;;11.21;91.19
26443;BME280;5563;52.296;6.806;2023-04-01T13:39:32;99769.28;;;11.13;91.35
26443;BME280;5563;52.296;6.806;2023-04-01T13:42:13;99775.91;;;11.09;91.21
26443;BME280;5563;52.296;6.806;2023-04-01T13:50:35;99791.09;;;10.91;91.00
26443;BME280;5563;52.296;6.806;2023-04-01T14:09:23;99793.59;;;10.74;91.60
26443;BME280;5563;52.296;6.806;2023-04-01T14:18:33;99823.06;;;10.73;92.04
26443;BME280;5563;52.296;6.806;2023-04-01T14:21:33;99820.31;;;10.65;92.14
26443;BME280;5563;52.296;6.806;2023-04-01T14:24:31;99835.41;;;10.74;92.08
26443;BME280;5563;52.296;6.806;2023-04-01T14:27:25;99841.47;;;10.66;92.16
26443;BME280;5563;52.296;6.806;2023-04-01T14:33:15;99856.94;;;10.63;92.79
26443;BME280;5563;52.296;6.806;2023-04-01T14:47:54;99878.25;;;10.36;93.06
26443;BME280;5563;52.296;6.806;2023-04-01T14:50:42;99869.97;;;10.29;93.45
26443;BME280;5563;52.296;6.806;2023-04-01T14:53:26;99880.38;;;10.32;93.36
26443;BME280;5563;52.296;6.806;2023-04-01T14:56:02;99895.19;;;10.35;93.34
26443;BME280;5563;52.296;6.806;2023-04-01T14:58:46;99871.69;;;10.21;93.39
26443;BME280;5563;52.296;6.806;2023-04-01T15:14:09;99927.19;;;10.25;93.25
26443;BME280;5563;52.296;6.806;2023-04-01T15:20:22;99920.34;;;9.84;93.27
26443;BME280;5563;52.296;6.806;2023-04-01T15:25:41;99950.38;;;9.77;93.52
26443;BME280;5563;52.296;6.806;2023-04-01T15:29:12;99941.25;;;9.60;93.17
26443;BME280;5563;52.296;6.806;2023-04-01T15:31:45;99954.00;;;9.57;93.55
26443;BME280;5563;52.296;6.806;2023-04-01T15:34:36;99978.38;;;9.62;93.47
26443;BME280;5563;52.296;6.806;2023-04-01T15:43:43;100007.72;;;9.32;93.51
26443;BME280;5563;52.296;6.806;2023-04-01T15:57:59;100027.53;;;9.09;94.14
26443;BME280;5563;52.296;6.806;2023-04-01T16:00:56;100028.19;;;9.01;94.44
26443;BME280;5563;52.296;6.806;2023-04-01T16:16:06;100062.38;;;8.85;94.52
26443;BME280;5563;52.296;6.806;2023-04-01T16:19:12;100068.81;;;8.83;94.57
26443;BME280;5563;52.296;6.806;2023-04-01T16:24:59;100078.09;;;8.67;94.44
26443;BME280;5563;52.296;6.806;2023-04-01T16:27:42;100099.56;;;8.76;94.50
26443;BME280;5563;52.296;6.806;2023-04-01T16:30:40;100105.97;;;8.73;94.57
26443;BME280;5563;52.296;6.806;2023-04-01T16:42:18;100102.47;;;8.52;94.30
26443;BME280;5563;52.296;6.806;2023-04-01T16:45:06;100106.69;;;8.54;94.43
26443;BME280;5563;52.296;6.806;2023-04-01T16:47:57;100139.47;;;8.64;94.46
26443;BME280;5563;52.296;6.806;2023-04-01T16:53:41;100128.84;;;8.44;94.50
26443;BME280;5563;52.296;6.806;2023-04-01T16:56:27;100153.91;;;8.51;94.43
26443;BME280;5563;52.296;6.806;2023-04-01T16:59:15;100156.94;;;8.46;94.36
26443;BME280;5563;52.296;6.806;2023-04-01T17:02:02;100161.22;;;8.38;94.00
26443;BME280;5563;52.296;6.806;2023-04-01T17:04:45;100165.22;;;8.32;93.99
26443;BME280;5563;52.296;6.806;2023-04-01T17:08:01;100180.19;;;8.33;94.00
26443;BME280;5563;52.296;6.806;2023-04-01T17:10:41;100182.47;;;8.27;93.96
26443;BME280;5563;52.296;6.806;2023-04-01T17:13:23;100190.81;;;8.33;94.21
26443;BME280;5563;52.296;6.806;2023-04-01T17:21:57;100229.47;;;8.26;93.99
26443;BME280;5563;52.296;6.806;2023-04-01T17:39:05;100248.91;;;7.94;94.06
26443;BME280;5563;52.296;6.806;2023-04-01T17:42:04;100244.06;;;7.88;93.68
26443;BME280;5563;52.296;6.806;2023-04-01T17:50:28;100259.28;;;7.75;93.54
26443;BME280;5563;52.296;6.806;2023-04-01T17:56:17;100299.69;;;7.89;93.48
26443;BME280;5563;52.296;6.806;2023-04-01T17:59:00;100304.28;;;7.87;93.42
26443;BME280;5563;52.296;6.806;2023-04-01T18:02:00;100310.78;;;7.83;93.35
26443;BME280;5563;52.296;6.806;2023-04-01T18:04:49;100315.34;;;7.81;93.43
26443;BME280;5563;52.296;6.806;2023-04-01T18:33:54;100378.47;;;18.40;53.78
26443;BME280;5563;52.296;6.806;2023-04-01T18:36:59;100390.19;;;18.69;53.22
26443;BME280;5563;52.296;6.806;2023-04-01T18:45:56;100426.50;;;22.72;45.43
26443;BME280;5563;52.296;6.806;2023-04-01T18:59:14;100454.25;;;21.28;43.23
26443;BME280;5563;52.296;6.806;2023-04-01T19:13:08;100475.25;;;21.13;43.86
26443;BME280;5563;52.296;6.806;2023-04-01T19:22:48;100507.81;;;20.37;42.36
26443;BME280;5563;52.296;6.806;2023-04-01T19:39:42;100553.91;;;19.87;41.82
26443;BME280;5563;52.296;6.806;2023-04-01T20:03:05;100610.00;;;19.34;41.07
26443;BME280;5563;52.296;6.806;2023-04-01T20:15:43;100642.25;;;18.31;43.25
26443;BME280;5563;52.296;6.806;2023-04-01T20:21:56;100647.56;;;17.86;43.19
26443;BME280;5563;52.296;6.806;2023-04-01T20:24:44;100655.50;;;18.49;42.46
26443;BME280;5563;52.296;6.806;2023-04-01T20:27:35;100663.06;;;17.84;43.55
26443;BME280;5563;52.296;6.806;2023-04-01T20:30:38;100684.09;;;17.96;43.09
26443;BME280;5563;52.296;6.806;2023-04-01T20:40:50;100672.94;;;17.37;42.61
26443;BME280;5563;52.296;6.806;2023-04-01T20:50:31;100723.13;;;16.65;45.59
26443;BME280;5563;52.296;6.806;2023-04-01T21:24:56;100799.09;;;18.83;40.03
26443;BME280;5563;52.296;6.806;2023-04-01T21:28:20;100807.06;;;17.75;41.02
26443;BME280;5563;52.296;6.806;2023-04-01T21:37:49;100840.00;;;13.43;48.11
26443;BME280;5563;52.296;6.806;2023-04-01T21:58:32;100892.69;;;5.99;81.45
26443;BME280;5563;52.296;6.806;2023-04-01T22:11:18;100897.41;;;5.64;81.85
26443;BME280;5563;52.296;6.806;2023-04-01T22:30:33;100941.41;;;5.51;84.05
26443;BME280;5563;52.296;6.806;2023-04-01T22:50:10;100945.06;;;5.19;85.11
26443;BME280;5563;52.296;6.806;2023-04-01T22:57:13;100980.97;;;5.23;85.93
26443;BME280;5563;52.296;6.806;2023-04-01T23:03:41;100978.84;;;4.98;85.99
26443;BME280;5563;52.296;6.806;2023-04-01T23:10:39;100994.69;;;4.98;86.62
26443;BME280;5563;52.296;6.806;2023-04-01T23:41:24;101046.28;;;4.73;86.54
26443;BME280;5563;52.296;6.806;2023-04-01T23:47:49;101060.44;;;4.72;86.87
26443;BME280;5563;52.296;6.806;2023-04-01T23:50:42;101059.66;;;4.70;87.04
26443;BME280;5563;52.296;6.806;2023-04-01T23:53:29;101078.06;;;4.71;86.92
26443;BME280;5563;52.296;6.806;2023-04-01T23:59:41;101087.84;;;4.69;86.40
